Time;durP1;ratioP1;P1;durP2;ratioP2;P2;SDS_P1;SDS_P2;PMS_P1;PMS_P2;Temp;Humidity;BMP_temperature;BMP_pressure;BME280_temperature;BME280_humidity;BME280_pressure;Samples;Min_cycle;Max_cycle;Signal;HPM_P1;HPM_P2
2023/09/01 00:00:37;;;;;;;8.13;3.22;;;13.60;99.90;;;;;;4876910;29;20108;-71
2023/09/01 00:03:03;;;;;;;6.00;3.67;;;13.60;99.90;;;;;;4877847;29;20084;-72
2023/09/01 00:05:33;;;;;;;7.18;3.22;;;13.60;99.90;;;;;;4877024;29;20084;-72
2023/09/01 00:07:58;;;;;;;5.05;2.90;;;13.60;99.90;;;;;;4878290;29;20131;-72
2023/09/01 00:10:24;;;;;;;4.93;2.85;;;13.50;99.90;;;;;;4875885;29;20088;-72
2023/09/01 00:12:50;;;;;;;4.65;2.75;;;13.50;99.90;;;;;;4877288;29;20177;-72
2023/09/01 00:15:15;;;;;;;7.60;3.08;;;13.50;99.90;;;;;;4876358;29;20049;-72
2023/09/01 00:17:41;;;;;;;6.75;3.10;;;13.50;99.90;;;;;;4878065;29;20097;-72
2023/09/01 00:20:08;;;;;;;6.22;3.38;;;13.50;99.90;;;;;;4861236;29;20045;-72
2023/09/01 00:22:34;;;;;;;5.78;3.22;;;13.50;99.90;;;;;;4876764;29;20491;-73
2023/09/01 00:25:00;;;;;;;5.85;3.20;;;13.50;99.90;;;;;;4878109;29;20444;-72
2023/09/01 00:27:26;;;;;;;7.32;3.92;;;13.40;99.90;;;;;;4877532;29;20136;-71
2023/09/01 00:29:52;;;;;;;5.40;4.10;;;13.40;99.90;;;;;;4877863;29;20395;-71
2023/09/01 00:32:17;;;;;;;7.85;4.78;;;13.40;99.90;;;;;;4880778;29;20395;-71
2023/09/01 00:34:43;;;;;;;8.23;5.15;;;13.40;99.90;;;;;;4864583;29;20057;-73
2023/09/01 00:37:09;;;;;;;7.57;5.18;;;13.40;99.90;;;;;;4864757;29;20148;-71
2023/09/01 00:39:35;;;;;;;8.27;6.07;;;13.30;99.90;;;;;;4880468;29;20132;-71
2023/09/01 00:42:00;;;;;;;11.27;6.22;;;13.30;99.90;;;;;;4879695;29;20180;-72
2023/09/01 00:44:26;;;;;;;10.93;5.65;;;13.30;99.90;;;;;;4868001;29;20360;-71
2023/09/01 00:46:52;;;;;;;8.20;5.60;;;13.30;99.90;;;;;;4884253;29;20060;-71
2023/09/01 00:49:18;;;;;;;8.65;5.45;;;13.30;99.90;;;;;;4864058;29;20112;-71
2023/09/01 00:51:48;;;;;;;7.88;5.78;;;13.30;99.90;;;;;;4881204;29;20045;-71
2023/09/01 00:54:15;;;;;;;7.32;5.00;;;13.30;99.90;;;;;;4879729;29;20091;-72
2023/09/01 00:56:43;;;;;;;7.63;4.95;;;13.30;99.90;;;;;;4880933;29;20057;-72
2023/09/01 00:59:08;;;;;;;9.25;4.50;;;13.30;99.90;;;;;;4880709;29;20203;-71
2023/09/01 01:01:34;;;;;;;8.20;4.72;;;13.30;99.90;;;;;;4863996;29;20052;-71
2023/09/01 01:04:01;;;;;;;8.48;4.50;;;13.30;99.90;;;;;;4848775;29;20458;-71
2023/09/01 01:06:35;;;;;;;8.13;4.43;;;13.30;99.90;;;;;;4878388;29;20049;-71
2023/09/01 01:09:17;;;;;;;7.72;3.70;;;13.20;99.90;;;;;;4879754;29;20444;-71
2023/09/01 01:11:54;;;;;;;7.10;4.43;;;13.10;99.90;;;;;;4863908;29;20056;-72
2023/09/01 01:14:30;;;;;;;5.72;3.60;;;13.20;99.90;;;;;;4879054;29;20108;-73
2023/09/01 01:16:57;;;;;;;7.20;3.38;;;13.10;99.90;;;;;;4879267;29;20057;-72
2023/09/01 01:19:47;;;;;;;7.93;3.40;;;13.10;99.90;;;;;;4878856;29;20084;-72
2023/09/01 01:22:13;;;;;;;6.40;3.70;;;13.10;99.90;;;;;;4880287;29;20220;-70
2023/09/01 01:24:41;;;;;;;7.18;3.47;;;13.10;99.90;;;;;;4863334;29;20473;-71
2023/09/01 01:27:07;;;;;;;4.35;3.00;;;13.00;99.90;;;;;;4879182;29;20048;-70
2023/09/01 01:29:32;;;;;;;5.13;3.08;;;13.00;99.90;;;;;;4878352;29;20112;-72
2023/09/01 01:31:59;;;;;;;5.57;3.20;;;13.00;99.90;;;;;;4847953;29;20053;-72
2023/09/01 01:34:49;;;;;;;5.50;3.40;;;12.90;99.90;;;;;;4879776;29;20510;-71
2023/09/01 01:37:33;;;;;;;7.18;3.03;;;12.90;99.90;;;;;;4863710;29;20436;-72
2023/09/01 01:40:02;;;;;;;9.80;3.80;;;12.90;99.90;;;;;;4878916;29;20057;-71
2023/09/01 01:42:30;;;;;;;9.55;4.03;;;12.90;99.90;;;;;;4862210;29;20088;-72
2023/09/01 01:44:58;;;;;;;7.00;3.30;;;12.90;99.90;;;;;;4878739;29;20048;-72
2023/09/01 01:47:23;;;;;;;6.15;3.40;;;12.80;99.90;;;;;;4863058;29;20132;-72
2023/09/01 01:49:49;;;;;;;9.02;3.60;;;12.80;99.90;;;;;;4863226;29;20151;-72
2023/09/01 01:52:15;;;;;;;5.22;3.30;;;12.80;99.90;;;;;;4863269;29;20053;-72
2023/09/01 01:54:41;;;;;;;8.65;3.95;;;12.80;99.90;;;;;;4878099;29;20059;-71
2023/09/01 01:57:10;;;;;;;6.00;3.17;;;12.80;99.90;;;;;;4863023;29;20445;-72
2023/09/01 01:59:36;;;;;;;6.35;3.15;;;12.80;99.90;;;;;;4878291;29;20068;-72
2023/09/01 02:02:05;;;;;;;7.13;3.40;;;12.70;99.90;;;;;;4862724;29;20511;-71
2023/09/01 02:04:31;;;;;;;7.82;3.40;;;12.70;99.90;;;;;;4862980;29;20060;-71
2023/09/01 02:06:57;;;;;;;6.68;3.42;;;12.70;99.90;;;;;;4878434;29;20515;-72
2023/09/01 02:09:23;;;;;;;8.60;3.63;;;12.60;99.90;;;;;;4878055;29;20053;-67
2023/09/01 02:11:49;;;;;;;5.30;3.33;;;12.60;99.90;;;;;;4879066;29;20509;-67
2023/09/01 02:14:14;;;;;;;6.72;3.75;;;12.60;99.90;;;;;;4878290;29;20053;-68
2023/09/01 02:16:40;;;;;;;6.22;3.42;;;12.60;99.90;;;;;;4879006;29;20057;-71
2023/09/01 02:19:09;;;;;;;5.72;3.55;;;12.60;99.90;;;;;;4878110;29;20063;-66
2023/09/01 02:21:35;;;;;;;8.73;3.83;;;12.50;99.90;;;;;;4879164;29;20052;-67
2023/09/01 02:24:00;;;;;;;8.00;3.78;;;12.50;99.90;;;;;;4879112;29;20120;-68
2023/09/01 02:26:26;;;;;;;7.30;3.60;;;12.50;99.90;;;;;;4878907;29;20178;-73
2023/09/01 02:28:52;;;;;;;7.63;3.65;;;12.50;99.90;;;;;;4878685;29;20060;-67
2023/09/01 02:31:18;;;;;;;7.38;3.50;;;12.50;99.90;;;;;;4846858;29;20061;-67
2023/09/01 02:33:44;;;;;;;8.05;3.42;;;12.50;99.90;;;;;;4877412;29;20128;-68
2023/09/01 02:36:33;;;;;;;6.45;3.85;;;12.40;99.90;;;;;;4878110;29;20128;-67
2023/09/01 02:39:00;;;;;;;5.88;3.28;;;12.40;99.90;;;;;;4879000;29;20124;-68
2023/09/01 02:41:26;;;;;;;8.10;3.45;;;12.50;99.90;;;;;;4878823;29;20056;-67
2023/09/01 02:43:53;;;;;;;7.03;3.97;;;12.50;99.90;;;;;;4877236;29;20068;-67
2023/09/01 02:46:20;;;;;;;8.38;3.58;;;12.50;99.90;;;;;;4878851;29;20057;-67
2023/09/01 02:48:46;;;;;;;6.95;3.38;;;12.50;99.90;;;;;;4878509;29;20164;-67
2023/09/01 02:51:11;;;;;;;6.53;3.30;;;12.40;99.90;;;;;;4862124;29;20049;-67
2023/09/01 02:53:39;;;;;;;7.57;3.40;;;12.40;99.90;;;;;;4877103;29;20518;-67
2023/09/01 02:56:05;;;;;;;6.75;3.55;;;12.40;99.90;;;;;;4877548;29;20140;-67
2023/09/01 02:58:31;;;;;;;6.10;3.53;;;12.40;99.90;;;;;;4877551;29;20092;-74
2023/09/01 03:00:57;;;;;;;7.20;3.50;;;12.40;99.90;;;;;;4877383;29;20056;-66
2023/09/01 03:03:24;;;;;;;6.85;3.50;;;12.40;99.90;;;;;;4877534;29;20048;-67
2023/09/01 03:05:51;;;;;;;6.43;4.13;;;12.40;99.90;;;;;;4878194;29;20105;-66
2023/09/01 03:08:23;;;;;;;7.53;3.60;;;12.40;99.90;;;;;;4877528;29;20057;-66
2023/09/01 03:10:49;;;;;;;7.90;3.85;;;12.30;99.90;;;;;;4876933;29;20045;-66
2023/09/01 03:13:15;;;;;;;5.50;3.40;;;12.30;99.90;;;;;;4861994;29;20068;-67
2023/09/01 03:15:41;;;;;;;6.00;3.50;;;12.30;99.90;;;;;;4878110;29;20053;-68
2023/09/01 03:18:09;;;;;;;7.03;3.95;;;12.30;99.90;;;;;;4878089;29;20084;-68
2023/09/01 03:20:34;;;;;;;7.90;3.40;;;12.30;99.90;;;;;;4876151;29;20139;-74
2023/09/01 03:23:00;;;;;;;9.77;3.55;;;12.30;99.90;;;;;;4861604;29;20155;-67
2023/09/01 03:25:26;;;;;;;7.95;3.88;;;12.30;99.90;;;;;;4878303;29;20534;-67
2023/09/01 03:27:52;;;;;;;6.28;3.70;;;12.30;99.90;;;;;;4876151;29;20456;-66
2023/09/01 03:30:17;;;;;;;6.28;3.70;;;12.30;99.90;;;;;;4846390;29;20049;-66
2023/09/01 03:32:43;;;;;;;7.57;3.72;;;12.30;99.90;;;;;;4876424;29;20065;-67
2023/09/01 03:35:09;;;;;;;6.22;3.17;;;12.30;99.90;;;;;;4877638;29;20080;-66
2023/09/01 03:37:35;;;;;;;8.73;3.38;;;12.30;99.90;;;;;;4877312;29;20514;-68
2023/09/01 03:40:08;;;;;;;8.10;3.47;;;12.30;99.90;;;;;;4877985;29;20128;-67
2023/09/01 03:42:34;;;;;;;6.35;3.22;;;12.20;99.90;;;;;;4878474;29;20407;-67
2023/09/01 03:45:00;;;;;;;4.72;3.10;;;12.20;99.90;;;;;;4877823;29;20053;-67
2023/09/01 03:47:26;;;;;;;5.65;3.50;;;12.20;99.90;;;;;;4878159;29;20104;-67
2023/09/01 03:49:51;;;;;;;7.28;3.50;;;12.20;99.90;;;;;;4877707;29;20480;-67
2023/09/01 03:52:17;;;;;;;5.70;3.25;;;12.20;99.90;;;;;;4877187;29;20139;-66
2023/09/01 03:54:43;;;;;;;8.38;3.38;;;12.20;99.90;;;;;;4877779;29;20056;-67
2023/09/01 03:57:09;;;;;;;7.60;3.40;;;12.20;99.90;;;;;;4861301;29;20056;-67
2023/09/01 03:59:35;;;;;;;6.20;3.25;;;12.20;99.90;;;;;;4876752;29;20053;-66
2023/09/01 04:02:00;;;;;;;5.93;3.70;;;12.20;99.90;;;;;;4861015;29;20096;-67
2023/09/01 04:04:27;;;;;;;9.00;4.20;;;12.20;99.90;;;;;;4877788;29;20444;-67
2023/09/01 04:06:53;;;;;;;5.97;3.78;;;12.20;99.90;;;;;;4864151;29;20079;-67
2023/09/01 04:09:19;;;;;;;6.50;3.83;;;12.20;99.90;;;;;;4881494;29;20547;-67
2023/09/01 04:11:45;;;;;;;6.38;3.58;;;12.20;99.90;;;;;;4881065;29;20056;-68
2023/09/01 04:14:11;;;;;;;7.82;3.50;;;12.10;99.90;;;;;;4880317;29;20041;-67
2023/09/01 04:16:38;;;;;;;6.53;3.30;;;12.10;99.90;;;;;;4880340;29;20092;-67
2023/09/01 04:19:04;;;;;;;4.35;2.70;;;12.10;99.90;;;;;;4879897;29;20102;-67
2023/09/01 04:21:30;;;;;;;6.05;3.38;;;12.10;99.90;;;;;;4880189;29;20037;-66
2023/09/01 04:23:56;;;;;;;6.68;3.33;;;12.10;99.90;;;;;;4879959;29;20049;-67
2023/09/01 04:26:22;;;;;;;5.32;3.10;;;12.00;99.90;;;;;;4880148;29;20509;-66
2023/09/01 04:28:47;;;;;;;6.03;3.30;;;12.10;99.90;;;;;;4879856;29;20436;-66
2023/09/01 04:31:29;;;;;;;6.55;2.97;;;12.10;99.90;;;;;;4880732;29;20478;-67
2023/09/01 04:33:56;;;;;;;6.90;3.30;;;12.00;99.90;;;;;;4880865;29;20087;-67
2023/09/01 04:36:22;;;;;;;6.55;3.50;;;12.10;99.90;;;;;;4879897;29;20049;-66
2023/09/01 04:38:47;;;;;;;5.35;3.17;;;12.00;99.90;;;;;;4880683;29;20465;-68
2023/09/01 04:41:13;;;;;;;4.95;2.97;;;12.00;99.90;;;;;;4880869;29;20049;-67
2023/09/01 04:43:39;;;;;;;6.10;3.13;;;12.00;99.90;;;;;;4880825;29;20464;-66
2023/09/01 04:46:05;;;;;;;7.50;2.85;;;11.90;99.90;;;;;;4878708;29;20303;-66
2023/09/01 04:48:31;;;;;;;8.30;3.17;;;12.00;99.90;;;;;;4879378;29;20057;-67
2023/09/01 04:51:00;;;;;;;5.35;3.10;;;11.90;99.90;;;;;;4880144;29;20049;-67
2023/09/01 04:53:25;;;;;;;8.27;3.22;;;11.90;99.90;;;;;;4880603;29;20419;-67
2023/09/01 04:55:52;;;;;;;5.30;3.13;;;11.90;99.90;;;;;;4878873;29;20111;-67
2023/09/01 04:58:17;;;;;;;5.70;2.97;;;11.90;99.90;;;;;;4880593;29;20129;-68
2023/09/01 05:00:44;;;;;;;9.45;3.47;;;11.90;99.90;;;;;;4863736;29;20090;-67
2023/09/01 05:03:12;;;;;;;5.40;2.97;;;11.90;99.90;;;;;;4878602;29;20044;-67
2023/09/01 05:05:38;;;;;;;5.85;3.25;;;11.90;99.90;;;;;;4879464;29;20060;-67
2023/09/01 05:08:03;;;;;;;7.07;3.30;;;12.00;99.90;;;;;;4878637;29;20053;-68
2023/09/01 05:10:29;;;;;;;5.47;3.03;;;11.90;99.90;;;;;;4863346;29;20045;-68
2023/09/01 05:12:55;;;;;;;6.50;3.38;;;12.00;99.90;;;;;;4878624;29;20164;-67
2023/09/01 05:15:21;;;;;;;6.70;3.65;;;12.00;99.90;;;;;;4878953;29;20060;-66
2023/09/01 05:17:47;;;;;;;5.25;2.92;;;12.00;99.90;;;;;;4878066;29;20056;-68
2023/09/01 05:20:12;;;;;;;7.72;3.22;;;12.00;99.90;;;;;;4878475;29;20056;-65
2023/09/01 05:22:38;;;;;;;6.00;3.42;;;12.00;99.90;;;;;;4833075;29;20113;-65
2023/09/01 05:25:05;;;;;;;5.57;2.97;;;12.10;99.90;;;;;;4879724;29;20049;-65
2023/09/01 05:27:31;;;;;;;8.52;3.45;;;12.10;99.90;;;;;;4879620;29;20052;-68
2023/09/01 05:29:56;;;;;;;9.10;3.22;;;12.10;99.90;;;;;;4879686;29;20049;-66
2023/09/01 05:32:22;;;;;;;8.45;3.30;;;12.20;99.90;;;;;;4879970;29;20120;-65
2023/09/01 05:34:48;;;;;;;6.43;3.30;;;12.30;99.90;;;;;;4879794;29;20045;-67
2023/09/01 05:37:14;;;;;;;5.85;3.15;;;12.60;99.90;;;;;;4878075;29;20128;-66
2023/09/01 05:39:41;;;;;;;7.65;3.65;;;13.20;99.90;;;;;;4878401;29;20133;-67
2023/09/01 05:42:08;;;;;;;5.75;3.00;;;13.80;99.90;;;;;;4878076;29;20045;-67
2023/09/01 05:44:35;;;;;;;6.22;2.67;;;14.40;99.90;;;;;;4879800;29;20057;-67
2023/09/01 05:47:03;;;;;;;5.95;2.95;;;15.10;99.90;;;;;;4862741;29;20128;-66
2023/09/01 05:49:31;;;;;;;4.32;2.53;;;15.80;99.90;;;;;;4879595;29;20096;-68
2023/09/01 05:51:57;;;;;;;7.40;2.97;;;16.50;99.90;;;;;;4878119;29;20454;-68
2023/09/01 05:54:23;;;;;;;4.70;2.60;;;17.20;99.90;;;;;;4879623;29;20045;-67
2023/09/01 05:56:49;;;;;;;4.20;2.78;;;17.80;99.90;;;;;;4863026;29;20157;-69
2023/09/01 05:59:14;;;;;;;4.07;2.60;;;18.40;99.90;;;;;;4878932;29;20049;-68
2023/09/01 06:01:41;;;;;;;5.35;2.88;;;18.80;99.90;;;;;;4878447;29;20045;-69
2023/09/01 06:04:07;;;;;;;4.53;2.60;;;19.10;99.90;;;;;;4878056;29;20053;-68
2023/09/01 06:06:35;;;;;;;6.25;2.25;;;19.20;99.90;;;;;;4860800;29;20053;-69
2023/09/01 06:09:01;;;;;;;5.35;2.58;;;19.20;99.90;;;;;;4861330;29;20128;-68
2023/09/01 06:11:28;;;;;;;5.65;3.00;;;19.20;99.90;;;;;;4877094;29;20389;-68
2023/09/01 06:13:54;;;;;;;4.22;2.42;;;19.00;99.90;;;;;;4877444;29;20132;-68
2023/09/01 06:16:20;;;;;;;6.65;3.00;;;18.50;99.90;;;;;;4846550;29;20189;-68
2023/09/01 06:18:46;;;;;;;10.75;2.88;;;18.10;99.90;;;;;;4879191;29;20491;-68
2023/09/01 06:21:15;;;;;;;4.78;2.13;;;17.90;99.90;;;;;;4878937;29;20049;-70
2023/09/01 06:23:44;;;;;;;6.53;4.50;;;17.80;99.90;;;;;;4877919;29;20373;-68
2023/09/01 06:26:11;;;;;;;8.55;2.90;;;17.70;99.90;;;;;;4878246;29;20460;-66
2023/09/01 06:28:39;;;;;;;6.72;3.00;;;17.60;99.90;;;;;;4878712;29;20048;-68
2023/09/01 06:31:05;;;;;;;6.47;3.00;;;17.40;99.90;;;;;;4875548;29;20131;-68
2023/09/01 06:33:30;;;;;;;7.40;3.30;;;17.30;99.90;;;;;;4877311;29;20147;-65
2023/09/01 06:35:56;;;;;;;6.65;2.80;;;17.20;99.90;;;;;;4878998;29;20053;-65
2023/09/01 06:38:22;;;;;;;4.53;2.60;;;17.20;99.90;;;;;;4862027;29;20053;-65
2023/09/01 06:40:48;;;;;;;6.90;2.60;;;17.30;99.90;;;;;;4861167;29;20045;-66
2023/09/01 06:43:13;;;;;;;4.82;2.40;;;17.50;99.90;;;;;;4877681;29;20053;-65
2023/09/01 06:45:39;;;;;;;5.55;2.70;;;17.80;99.90;;;;;;4847001;29;20056;-66
2023/09/01 06:48:05;;;;;;;7.70;2.70;;;18.10;99.90;;;;;;4877964;29;20543;-72
2023/09/01 06:50:32;;;;;;;7.65;3.30;;;18.40;99.90;;;;;;4861769;29;20044;-69
2023/09/01 06:52:58;;;;;;;8.45;3.08;;;18.70;99.90;;;;;;4878338;29;20111;-65
2023/09/01 06:55:24;;;;;;;5.80;2.75;;;18.90;99.90;;;;;;4878187;29;20507;-69
2023/09/01 06:57:49;;;;;;;11.20;2.85;;;18.90;99.90;;;;;;4877122;29;20052;-68
2023/09/01 07:00:16;;;;;;;6.85;2.67;;;18.70;99.90;;;;;;4876693;29;20547;-70
2023/09/01 07:02:41;;;;;;;5.82;2.50;;;18.60;99.90;;;;;;4877074;29;20060;-70
2023/09/01 07:05:07;;;;;;;6.05;2.80;;;18.50;99.90;;;;;;4861419;29;20049;-73
2023/09/01 07:07:33;;;;;;;4.97;2.35;;;18.50;99.90;;;;;;4878390;29;20135;-70
2023/09/01 07:09:59;;;;;;;5.75;2.65;;;18.80;99.90;;;;;;4862275;29;20135;-71
2023/09/01 07:12:24;;;;;;;5.00;2.40;;;18.80;99.90;;;;;;4862074;29;20057;-70
2023/09/01 07:14:50;;;;;;;8.90;2.45;;;18.70;99.90;;;;;;4877555;29;20153;-69
2023/09/01 07:17:22;;;;;;;4.93;2.22;;;18.60;99.90;;;;;;4878309;29;20121;-70
2023/09/01 07:19:48;;;;;;;6.45;2.65;;;18.50;99.90;;;;;;4877809;29;20423;-71
2023/09/01 07:22:14;;;;;;;6.55;2.20;;;18.40;99.90;;;;;;4878391;29;20045;-70
2023/09/01 07:24:40;;;;;;;5.45;2.05;;;18.70;99.90;;;;;;4878732;29;20505;-71
2023/09/01 07:27:09;;;;;;;6.40;2.33;;;19.20;99.90;;;;;;4877216;29;20056;-70
2023/09/01 07:29:38;;;;;;;7.20;2.30;;;19.90;99.90;;;;;;4877901;29;20049;-71
2023/09/01 07:32:04;;;;;;;4.57;1.40;;;20.40;99.90;;;;;;4877197;29;20349;-71
2023/09/01 07:34:30;;;;;;;7.07;2.08;;;20.80;99.90;;;;;;4877102;29;20407;-71
2023/09/01 07:36:56;;;;;;;6.55;1.80;;;20.60;99.90;;;;;;4877343;29;20049;-71
2023/09/01 07:39:22;;;;;;;4.68;1.63;;;20.50;99.90;;;;;;4876859;29;20507;-70
2023/09/01 07:41:47;;;;;;;5.20;1.83;;;20.10;99.90;;;;;;4881071;29;20337;-71
2023/09/01 07:44:16;;;;;;;3.88;1.70;;;19.80;99.90;;;;;;4881810;29;20055;-70
2023/09/01 07:46:42;;;;;;;3.42;1.63;;;19.90;99.90;;;;;;4865808;29;20249;-71
2023/09/01 07:49:08;;;;;;;4.72;1.77;;;20.50;99.90;;;;;;4865757;29;20049;-70
2023/09/01 07:51:34;;;;;;;5.50;1.63;;;21.00;99.90;;;;;;4864535;29;20048;-71
2023/09/01 07:54:00;;;;;;;4.07;1.63;;;21.30;99.90;;;;;;4882026;29;20045;-71
2023/09/01 07:56:26;;;;;;;4.57;1.80;;;21.60;99.90;;;;;;4881583;29;20428;-70
2023/09/01 07:58:51;;;;;;;4.40;1.30;;;21.60;99.90;;;;;;4880790;29;20590;-71
2023/09/01 08:01:17;;;;;;;7.00;1.80;;;21.30;99.90;;;;;;4880483;29;20464;-71
2023/09/01 08:03:43;;;;;;;7.95;1.88;;;21.10;99.90;;;;;;4880406;29;20087;-71
2023/09/01 08:06:09;;;;;;;5.47;1.60;;;20.90;99.90;;;;;;4881661;29;20056;-71
2023/09/01 08:08:34;;;;;;;5.13;1.75;;;20.70;99.90;;;;;;4880312;29;20080;-71
2023/09/01 08:11:00;;;;;;;6.75;1.50;;;20.60;99.90;;;;;;4881434;29;20045;-71
2023/09/01 08:13:36;;;;;;;5.63;1.73;;;20.90;99.90;;;;;;4881412;29;20061;-70
2023/09/01 08:16:02;;;;;;;7.07;1.73;;;21.20;99.90;;;;;;4864987;29;20049;-71
2023/09/01 08:18:28;;;;;;;3.95;1.70;;;21.50;99.90;;;;;;4881498;29;20052;-71
2023/09/01 08:20:54;;;;;;;4.47;2.08;;;21.60;99.90;;;;;;4880302;29;20049;-71
2023/09/01 08:23:21;;;;;;;3.65;1.58;;;21.50;99.90;;;;;;4881120;29;20049;-71
2023/09/01 08:25:48;;;;;;;4.75;1.70;;;21.60;99.90;;;;;;4880069;29;20126;-71
2023/09/01 08:28:14;;;;;;;4.53;1.48;;;21.50;99.90;;;;;;4864883;29;20132;-72
2023/09/01 08:30:39;;;;;;;5.13;1.60;;;21.50;99.90;;;;;;4880982;29;20132;-70
2023/09/01 08:33:05;;;;;;;4.50;1.60;;;21.30;99.90;;;;;;4880773;29;20089;-71
2023/09/01 08:35:31;;;;;;;3.22;1.48;;;21.10;99.90;;;;;;4879996;29;20088;-71
2023/09/01 08:37:57;;;;;;;6.32;1.60;;;21.00;99.90;;;;;;4881149;29;20063;-70
2023/09/01 08:40:22;;;;;;;4.40;1.50;;;20.80;99.90;;;;;;4880968;29;20052;-71
2023/09/01 08:42:49;;;;;;;2.63;1.30;;;20.90;99.90;;;;;;4881297;29;20053;-71
2023/09/01 08:45:17;;;;;;;4.50;1.70;;;20.90;99.90;;;;;;4880067;29;20104;-70
2023/09/01 08:47:45;;;;;;;5.15;1.48;;;20.90;99.90;;;;;;4881145;29;20440;-70
2023/09/01 08:50:13;;;;;;;4.22;1.58;;;20.90;99.90;;;;;;4881056;29;20045;-71
2023/09/01 08:52:40;;;;;;;4.20;1.63;;;20.90;99.90;;;;;;4880589;29;20641;-71
2023/09/01 08:55:06;;;;;;;6.15;1.88;;;21.00;99.90;;;;;;4881025;29;20099;-70
2023/09/01 08:57:32;;;;;;;4.93;1.70;;;20.90;99.90;;;;;;4864327;29;20060;-70
2023/09/01 08:59:58;;;;;;;4.60;1.30;;;20.80;99.90;;;;;;4880961;29;20400;-70
2023/09/01 09:02:23;;;;;;;2.72;1.55;;;20.70;99.90;;;;;;4880423;29;20439;-70
2023/09/01 09:04:49;;;;;;;4.60;1.60;;;20.70;99.90;;;;;;4881125;29;20172;-71
2023/09/01 09:07:18;;;;;;;4.00;1.58;;;20.80;99.90;;;;;;4879666;29;20048;-71
2023/09/01 09:09:50;;;;;;;4.28;1.42;;;20.80;99.90;;;;;;4880448;29;20053;-70
2023/09/01 09:12:17;;;;;;;6.30;1.77;;;20.70;99.90;;;;;;4880546;29;20059;-70
2023/09/01 09:14:50;;;;;;;6.78;1.50;;;20.60;99.90;;;;;;4879191;29;20061;-70
2023/09/01 09:17:17;;;;;;;3.55;1.52;;;20.50;99.90;;;;;;4880298;29;20515;-71
2023/09/01 09:19:54;;;;;;;3.10;1.52;;;20.40;99.90;;;;;;4880310;29;20049;-70
2023/09/01 09:22:21;;;;;;;4.43;1.50;;;20.40;99.90;;;;;;4880484;29;20163;-70
2023/09/01 09:24:47;;;;;;;4.82;1.42;;;20.30;99.90;;;;;;4879074;29;20544;-71
2023/09/01 09:27:17;;;;;;;3.10;1.75;;;20.20;99.90;;;;;;4864031;29;20116;-70
2023/09/01 09:29:45;;;;;;;5.30;2.00;;;20.20;99.90;;;;;;4879945;29;20118;-70
2023/09/01 09:32:19;;;;;;;4.68;1.70;;;20.20;99.90;;;;;;4880358;29;20056;-71
2023/09/01 09:35:23;;;;;;;5.53;1.70;;;20.20;99.90;;;;;;4879930;29;20064;-70
2023/09/01 09:38:00;;;;;;;4.43;1.73;;;20.10;99.90;;;;;;4832852;29;20079;-71
2023/09/01 09:40:27;;;;;;;8.13;1.85;;;20.10;99.90;;;;;;4879902;29;20496;-72
2023/09/01 09:42:56;;;;;;;3.60;1.80;;;20.00;99.90;;;;;;4863690;29;20060;-71
2023/09/01 09:45:29;;;;;;;4.13;1.60;;;20.00;99.90;;;;;;4880033;29;20108;-71
2023/09/01 09:48:06;;;;;;;4.63;1.57;;;20.00;99.90;;;;;;4880160;29;20053;-70
2023/09/01 09:50:33;;;;;;;2.60;1.30;;;20.00;99.90;;;;;;4878573;29;20053;-71
2023/09/01 09:53:05;;;;;;;3.85;1.40;;;20.00;99.90;;;;;;4879980;29;20074;-71
2023/09/01 09:55:39;;;;;;;2.83;1.55;;;20.10;99.90;;;;;;4878577;29;20049;-70
2023/09/01 09:58:09;;;;;;;3.83;1.45;;;20.10;99.90;;;;;;4863587;29;20441;-71
2023/09/01 10:00:40;;;;;;;3.20;1.60;;;20.10;99.90;;;;;;4878562;29;20112;-70
2023/09/01 10:03:07;;;;;;;5.97;1.70;;;20.20;99.90;;;;;;4878993;29;20047;-70
2023/09/01 10:05:34;;;;;;;4.65;1.85;;;20.10;99.90;;;;;;4879120;29;20590;-71
2023/09/01 10:08:03;;;;;;;3.90;1.55;;;20.10;99.90;;;;;;4878289;29;20446;-72
2023/09/01 10:10:34;;;;;;;3.00;1.65;;;20.10;99.90;;;;;;4878911;29;20468;-73
2023/09/01 10:13:07;;;;;;;8.80;1.70;;;20.10;99.90;;;;;;4879659;29;20073;-71
2023/09/01 10:15:34;;;;;;;4.03;2.00;;;20.00;99.90;;;;;;4878425;29;20044;-71
2023/09/01 10:18:10;;;;;;;5.80;1.67;;;20.00;99.90;;;;;;4879501;29;20113;-70
2023/09/01 10:20:45;;;;;;;3.75;1.60;;;20.00;99.90;;;;;;4879226;29;20045;-70
2023/09/01 10:23:12;;;;;;;4.10;1.70;;;20.00;99.90;;;;;;4879403;29;20424;-71
2023/09/01 10:25:38;;;;;;;3.00;1.40;;;20.10;99.90;;;;;;4878187;29;20045;-71
2023/09/01 10:28:11;;;;;;;5.30;1.75;;;20.20;99.90;;;;;;4879533;29;20396;-70
2023/09/01 10:30:41;;;;;;;4.45;1.70;;;20.20;99.90;;;;;;4878913;29;20121;-70
2023/09/01 10:33:12;;;;;;;3.40;1.50;;;20.30;99.90;;;;;;4878703;29;20065;-71
2023/09/01 10:35:42;;;;;;;6.47;2.22;;;20.20;99.90;;;;;;4862400;29;20140;-71
2023/09/01 10:38:15;;;;;;;5.35;1.75;;;20.20;99.90;;;;;;4877890;29;20055;-70
2023/09/01 10:40:42;;;;;;;5.38;1.90;;;20.20;99.90;;;;;;4877529;29;20053;-71
2023/09/01 10:43:07;;;;;;;5.15;1.85;;;20.20;99.90;;;;;;4877945;29;20052;-70
2023/09/01 10:45:53;;;;;;;3.30;1.55;;;20.20;99.90;;;;;;4877496;29;20408;-76
2023/09/01 10:48:58;;;;;;;5.30;1.65;;;20.20;99.90;;;;;;4861145;29;20139;-71
2023/09/01 10:51:27;;;;;;;4.45;1.52;;;20.30;99.90;;;;;;4877789;29;20052;-71
2023/09/01 10:54:01;;;;;;;3.90;1.35;;;20.30;99.90;;;;;;4878542;29;20196;-70
2023/09/01 10:56:27;;;;;;;3.28;1.40;;;20.40;99.90;;;;;;4877915;29;20060;-70
2023/09/01 10:58:56;;;;;;;4.00;1.70;;;20.50;99.90;;;;;;4878239;29;20495;-71
2023/09/01 11:01:38;;;;;;;4.07;1.40;;;20.60;99.90;;;;;;4877257;29;20049;-70
2023/09/01 11:04:16;;;;;;;4.72;1.80;;;20.70;99.90;;;;;;4879045;29;20055;-71
2023/09/01 11:06:57;;;;;;;3.90;1.63;;;20.70;99.90;;;;;;4877316;29;20055;-70
2023/09/01 11:09:33;;;;;;;4.70;1.60;;;20.80;99.90;;;;;;4877668;29;20432;-70
2023/09/01 11:12:06;;;;;;;3.05;1.40;;;20.90;99.90;;;;;;4878427;29;20407;-71
2023/09/01 11:14:34;;;;;;;3.97;1.75;;;20.90;99.90;;;;;;4878830;29;20049;-69
2023/09/01 11:17:00;;;;;;;2.55;1.58;;;21.00;99.90;;;;;;4877284;29;20049;-70
2023/09/01 11:19:26;;;;;;;4.38;2.00;;;21.00;99.90;;;;;;4877399;29;20504;-71
2023/09/01 11:21:53;;;;;;;4.72;1.83;;;21.10;99.90;;;;;;4878382;29;20052;-71
2023/09/01 11:24:22;;;;;;;4.20;1.80;;;21.10;99.90;;;;;;4878307;29;20543;-71
2023/09/01 11:26:52;;;;;;;4.32;1.65;;;21.10;99.90;;;;;;4861675;29;20052;-71
2023/09/01 11:29:21;;;;;;;4.90;1.95;;;21.10;99.90;;;;;;4877551;29;20149;-70
2023/09/01 11:31:47;;;;;;;7.30;2.00;;;21.10;99.90;;;;;;4861753;29;20056;-70
2023/09/01 11:34:15;;;;;;;4.00;1.98;;;21.00;99.90;;;;;;4878707;29;20136;-71
2023/09/01 11:36:49;;;;;;;3.70;1.70;;;20.90;99.90;;;;;;4877109;29;20515;-71
2023/09/01 11:39:14;;;;;;;7.63;2.15;;;21.00;99.90;;;;;;4878692;29;20056;-70
2023/09/01 11:41:42;;;;;;;4.50;2.10;;;21.00;99.90;;;;;;4861676;29;20483;-72
2023/09/01 11:44:08;;;;;;;7.50;2.00;;;21.10;99.90;;;;;;4878795;29;20037;-71
2023/09/01 11:46:37;;;;;;;5.60;1.90;;;21.10;99.90;;;;;;4878334;29;20463;-70
2023/09/01 11:49:03;;;;;;;5.57;2.00;;;21.10;99.90;;;;;;4876812;29;20156;-70
2023/09/01 11:51:33;;;;;;;4.50;1.80;;;21.10;99.90;;;;;;4878280;29;20042;-70
2023/09/01 11:53:59;;;;;;;5.07;1.77;;;21.10;99.90;;;;;;4878048;29;20049;-71
2023/09/01 11:56:25;;;;;;;4.05;1.80;;;21.10;99.90;;;;;;4877447;29;20092;-71
2023/09/01 11:58:53;;;;;;;5.70;1.90;;;21.10;99.90;;;;;;4876755;29;20455;-72
2023/09/01 12:01:20;;;;;;;3.75;1.70;;;21.30;99.90;;;;;;4878208;29;20053;-70
2023/09/01 12:03:51;;;;;;;4.20;1.80;;;21.30;99.90;;;;;;4876861;29;20136;-70
2023/09/01 12:06:21;;;;;;;5.25;2.00;;;21.40;99.90;;;;;;4878210;29;20122;-70
2023/09/01 12:08:48;;;;;;;4.63;1.90;;;21.30;99.90;;;;;;4878063;29;20045;-70
2023/09/01 12:11:15;;;;;;;5.10;1.90;;;21.20;99.90;;;;;;4878150;29;20052;-71
2023/09/01 12:13:43;;;;;;;5.88;2.45;;;21.10;99.90;;;;;;4878001;29;20056;-71
2023/09/01 12:16:19;;;;;;;5.80;2.47;;;21.20;99.90;;;;;;4877429;29;20523;-71
2023/09/01 12:18:45;;;;;;;7.57;2.50;;;21.20;99.90;;;;;;4878138;29;20048;-71
2023/09/01 12:21:11;;;;;;;4.97;2.40;;;21.20;99.90;;;;;;4876846;29;20053;-71
2023/09/01 12:23:44;;;;;;;14.45;2.95;;;21.30;99.90;;;;;;4876832;29;20053;-70
2023/09/01 12:26:11;;;;;;;6.25;2.13;;;21.30;99.90;;;;;;4877988;29;20076;-70
2023/09/01 12:28:39;;;;;;;6.13;2.38;;;21.30;99.90;;;;;;4881584;29;20057;-71
2023/09/01 12:31:07;;;;;;;7.70;2.67;;;21.30;99.90;;;;;;4864466;29;20184;-70
2023/09/01 12:33:33;;;;;;;6.28;2.38;;;21.30;99.90;;;;;;4880767;29;20136;-70
2023/09/01 12:35:59;;;;;;;4.93;2.45;;;21.30;99.90;;;;;;4879576;29;20136;-70
2023/09/01 12:38:25;;;;;;;7.45;2.40;;;21.30;99.90;;;;;;4881087;29;20056;-70
2023/09/01 12:40:52;;;;;;;8.00;2.50;;;21.30;99.90;;;;;;4880688;29;20456;-71
2023/09/01 12:43:18;;;;;;;6.32;2.50;;;21.40;99.90;;;;;;4881024;29;20503;-70
2023/09/01 12:45:44;;;;;;;7.57;2.53;;;21.50;99.90;;;;;;4881230;29;20049;-71
2023/09/01 12:48:10;;;;;;;7.95;2.28;;;21.40;99.90;;;;;;4864479;29;20067;-71